Time;durP1;ratioP1;P1;durP2;ratioP2;P2;SDS_P1;SDS_P2;PMS_P1;PMS_P2;Temp;Humidity;BMP_temperature;BMP_pressure;BME280_temperature;BME280_humidity;BME280_pressure;Samples;Min_cycle;Max_cycle;Signal;HPM_P1;HPM_P2
2023/12/04 00:01:45;;;;;;;5.53;3.30;;;;;;;;;;5075579;28;20693;-69
2023/12/04 00:12:11;;;;;;;4.83;2.47;;;;;;;;;;5076286;28;20400;-69
2023/12/04 00:14:38;;;;;;;7.17;3.07;;;;;;;;;;5058832;28;20920;-69
2023/12/04 00:17:05;;;;;;;5.23;2.97;;;;;;;;;;5076698;28;20759;-69
2023/12/04 00:19:31;;;;;;;6.33;3.10;;;;;;;;;;5057354;28;20464;-69
2023/12/04 00:22:15;;;;;;;4.90;3.50;;;;;;;;;;5074452;28;20537;-69
2023/12/04 00:24:42;;;;;;;6.27;3.50;;;;;;;;;;5058336;28;20837;-69
2023/12/04 00:27:27;;;;;;;5.13;3.17;;;;;;;;;;5076060;28;20758;-69
2023/12/04 00:29:54;;;;;;;6.63;3.63;;;;;;;;;;5075812;28;20511;-69
2023/12/04 00:32:20;;;;;;;7.60;3.40;;;;;;;;;;5058544;28;20456;-69
2023/12/04 00:34:47;;;;;;;7.50;4.03;;;;;;;;;;5076101;28;20937;-69
2023/12/04 00:37:13;;;;;;;6.93;3.90;;;;;;;;;;5074932;28;20424;-69
2023/12/04 00:40:05;;;;;;;7.20;3.77;;;;;;;;;;5073686;28;20452;-68
2023/12/04 00:43:04;;;;;;;6.27;3.93;;;;;;;;;;5076602;28;20724;-67
2023/12/04 00:45:48;;;;;;;8.80;3.63;;;;;;;;;;5074697;28;20457;-68
2023/12/04 00:48:15;;;;;;;5.23;3.10;;;;;;;;;;5075695;28;20432;-67
2023/12/04 00:50:42;;;;;;;5.37;2.93;;;;;;;;;;5075910;28;20417;-69
2023/12/04 00:53:08;;;;;;;4.40;2.90;;;;;;;;;;5075841;28;20424;-67
2023/12/04 00:58:46;;;;;;;3.60;1.87;;;;;;;;;;5057081;28;20539;-68
2023/12/04 01:01:13;;;;;;;5.70;3.03;;;;;;;;;;5058149;28;20815;-67
2023/12/04 01:03:40;;;;;;;5.27;2.97;;;;;;;;;;5070877;28;20461;-69
2023/12/04 01:06:07;;;;;;;7.30;2.40;;;;;;;;;;5072054;28;20524;-68
2023/12/04 01:08:34;;;;;;;5.37;3.23;;;;;;;;;;5054527;28;20472;-68
2023/12/04 01:11:00;;;;;;;5.57;2.83;;;;;;;;;;5055823;28;20409;-68
2023/12/04 01:48:39;;;;;;;4.67;2.43;;;;;;;;;;5053324;28;20437;-68
2023/12/04 01:51:06;;;;;;;5.00;2.87;;;;;;;;;;5053277;28;20457;-69
2023/12/04 02:01:26;;;;;;;5.30;2.90;;;;;;;;;;5055044;28;20428;-69
2023/12/04 02:03:54;;;;;;;5.63;3.40;;;;;;;;;;5056245;28;20451;-69
2023/12/04 02:06:21;;;;;;;6.13;2.90;;;;;;;;;;5055594;28;20482;-69
2023/12/04 02:12:47;;;;;;;4.83;3.03;;;;;;;;;;5073979;28;20774;-69
2023/12/04 02:19:14;;;;;;;4.27;2.33;;;;;;;;;;5074458;28;20940;-69
2023/12/04 02:21:41;;;;;;;4.30;2.77;;;;;;;;;;5055963;28;21012;-70
2023/12/04 02:24:25;;;;;;;3.60;2.07;;;;;;;;;;5044487;28;20416;-69
2023/12/04 02:26:54;;;;;;;3.43;2.00;;;;;;;;;;5056202;28;20428;-69
2023/12/04 02:29:29;;;;;;;5.07;2.80;;;;;;;;;;5055899;28;20448;-69
2023/12/04 02:31:56;;;;;;;4.20;2.50;;;;;;;;;;5056520;28;20988;-69
2023/12/04 02:38:16;;;;;;;3.10;2.30;;;;;;;;;;5073334;28;20870;-69
2023/12/04 02:40:43;;;;;;;4.43;2.77;;;;;;;;;;5054628;28;20491;-70
2023/12/04 02:43:09;;;;;;;3.73;1.73;;;;;;;;;;5055713;28;20433;-68
2023/12/04 02:45:42;;;;;;;5.13;2.30;;;;;;;;;;5073476;28;20950;-69
2023/12/04 02:48:10;;;;;;;5.80;2.50;;;;;;;;;;5039302;28;20424;-69
2023/12/04 02:50:37;;;;;;;3.53;2.10;;;;;;;;;;5073330;28;20425;-69
2023/12/04 02:53:03;;;;;;;4.53;2.40;;;;;;;;;;5072884;28;20425;-69
2023/12/04 02:55:30;;;;;;;4.73;2.67;;;;;;;;;;5039592;28;20433;-68
2023/12/04 02:57:56;;;;;;;4.80;2.50;;;;;;;;;;5072188;28;20424;-69
2023/12/04 03:04:22;;;;;;;4.17;2.50;;;;;;;;;;5068230;28;20774;-69
2023/12/04 03:10:48;;;;;;;4.37;2.30;;;;;;;;;;5073540;28;20371;-69
2023/12/04 03:13:15;;;;;;;4.93;2.47;;;;;;;;;;5038498;28;20467;-70
2023/12/04 03:16:07;;;;;;;6.00;2.60;;;;;;;;;;5072113;28;20794;-69
2023/12/04 03:18:35;;;;;;;4.47;2.43;;;;;;;;;;5073070;28;20404;-69
2023/12/04 03:21:20;;;;;;;5.93;2.70;;;;;;;;;;5071752;28;20802;-68
2023/12/04 03:23:47;;;;;;;3.90;2.33;;;;;;;;;;5058667;28;20515;-69
2023/12/04 03:30:07;;;;;;;4.17;2.63;;;;;;;;;;5077414;28;20355;-69
2023/12/04 03:32:51;;;;;;;4.87;2.73;;;;;;;;;;5076016;28;20384;-69
2023/12/04 03:35:18;;;;;;;4.57;2.80;;;;;;;;;;5076491;28;20925;-69
2023/12/04 03:37:45;;;;;;;5.03;2.60;;;;;;;;;;5077992;28;20964;-69
2023/12/04 03:40:11;;;;;;;7.30;2.90;;;;;;;;;;5042585;28;20452;-69
2023/12/04 03:42:38;;;;;;;5.27;2.63;;;;;;;;;;5078167;28;20540;-69
2023/12/04 03:45:05;;;;;;;6.30;3.23;;;;;;;;;;5059567;28;20951;-67
2023/12/04 03:47:31;;;;;;;5.33;3.03;;;;;;;;;;5076339;28;20427;-68
2023/12/04 03:49:58;;;;;;;6.17;2.63;;;;;;;;;;5074372;28;20495;-68
2023/12/04 03:52:25;;;;;;;5.80;3.13;;;;;;;;;;5041758;28;20436;-68
2023/12/04 03:54:51;;;;;;;5.60;3.30;;;;;;;;;;5058864;28;20428;-69
2023/12/04 03:57:18;;;;;;;7.67;3.77;;;;;;;;;;5042360;28;20447;-69
2023/12/04 03:59:45;;;;;;;6.17;3.67;;;;;;;;;;5059160;28;20422;-69
2023/12/04 04:02:11;;;;;;;4.73;3.10;;;;;;;;;;5059550;28;20436;-69
2023/12/04 04:08:12;;;;;;;5.47;2.67;;;;;;;;;;5074515;28;20443;-69
2023/12/04 04:14:14;;;;;;;6.33;3.47;;;;;;;;;;5076350;28;20739;-67
2023/12/04 04:16:41;;;;;;;7.03;3.70;;;;;;;;;;5077599;28;20424;-67
2023/12/04 04:19:08;;;;;;;8.07;4.07;;;;;;;;;;5076455;28;20424;-67
2023/12/04 04:21:39;;;;;;;8.90;4.00;;;;;;;;;;5075142;28;20452;-69
2023/12/04 04:24:18;;;;;;;7.23;4.27;;;;;;;;;;5057461;28;20516;-67
2023/12/04 04:30:55;;;;;;;8.33;4.30;;;;;;;;;;5075783;28;20427;-69
2023/12/04 04:37:32;;;;;;;9.93;4.00;;;;;;;;;;5076173;28;20456;-69
2023/12/04 04:40:16;;;;;;;7.10;4.10;;;;;;;;;;5073820;28;20512;-68
2023/12/04 04:42:49;;;;;;;9.30;4.40;;;;;;;;;;5074124;28;20754;-69
2023/12/04 04:45:16;;;;;;;12.83;4.60;;;;;;;;;;5058498;28;20448;-67
2023/12/04 04:47:42;;;;;;;8.60;4.70;;;;;;;;;;5074680;28;20443;-67
2023/12/04 04:54:08;;;;;;;7.87;3.80;;;;;;;;;;5075887;28;20700;-69
2023/12/04 04:57:00;;;;;;;8.17;4.27;;;;;;;;;;5057521;28;20435;-69
2023/12/04 04:59:44;;;;;;;10.47;4.83;;;;;;;;;;5075086;28;20471;-69
2023/12/04 05:02:11;;;;;;;14.90;6.37;;;;;;;;;;5075498;28;20467;-67
2023/12/04 05:04:37;;;;;;;13.30;6.27;;;;;;;;;;5057134;28;20514;-67
2023/12/04 05:11:04;;;;;;;13.77;5.87;;;;;;;;;;5075549;28;20367;-67
2023/12/04 05:13:31;;;;;;;11.47;6.27;;;;;;;;;;5074726;28;20491;-68
2023/12/04 05:15:58;;;;;;;11.67;5.70;;;;;;;;;;5073182;28;20485;-69
2023/12/04 05:18:25;;;;;;;9.60;5.40;;;;;;;;;;5075088;28;20822;-69
2023/12/04 05:20:52;;;;;;;9.13;5.33;;;;;;;;;;5073596;28;20458;-69
2023/12/04 05:23:18;;;;;;;10.40;4.87;;;;;;;;;;5058394;28;20907;-68
2023/12/04 05:25:45;;;;;;;12.43;6.20;;;;;;;;;;5057577;28;20420;-68
2023/12/04 05:28:16;;;;;;;10.83;5.63;;;;;;;;;;5074726;28;20478;-69
2023/12/04 05:30:43;;;;;;;12.70;7.00;;;;;;;;;;5056831;28;20740;-69
2023/12/04 05:33:10;;;;;;;17.00;7.27;;;;;;;;;;5073800;28;20444;-69
2023/12/04 05:39:17;;;;;;;11.23;6.00;;;;;;;;;;5074902;28;20400;-69
2023/12/04 05:41:44;;;;;;;14.90;7.40;;;;;;;;;;5073730;28;20808;-69
2023/12/04 05:48:03;;;;;;;11.50;6.03;;;;;;;;;;5074176;28;20720;-69
2023/12/04 05:50:47;;;;;;;15.60;7.00;;;;;;;;;;5071985;28;20499;-69
2023/12/04 05:53:13;;;;;;;14.00;7.43;;;;;;;;;;5074060;28;20516;-69
2023/12/04 05:59:34;;;;;;;19.07;8.60;;;;;;;;;;5074664;28;20547;-69
2023/12/04 06:02:01;;;;;;;10.73;4.60;;;;;;;;;;5073590;28;20577;-69
2023/12/04 06:04:28;;;;;;;26.93;8.60;;;;;;;;;;5041013;28;20925;-69
2023/12/04 06:06:54;;;;;;;18.67;7.70;;;;;;;;;;5071831;28;20430;-71
2023/12/04 06:09:21;;;;;;;11.80;5.80;;;;;;;;;;5055791;28;20767;-69
2023/12/04 06:11:47;;;;;;;18.90;8.00;;;;;;;;;;5056052;28;20452;-67
2023/12/04 06:14:14;;;;;;;17.07;8.23;;;;;;;;;;5055664;28;20432;-68
2023/12/04 06:16:58;;;;;;;11.57;6.00;;;;;;;;;;5058743;28;20390;-67
2023/12/04 06:19:25;;;;;;;14.33;7.03;;;;;;;;;;5073015;28;20428;-67
2023/12/04 06:21:52;;;;;;;17.07;8.27;;;;;;;;;;5073483;28;20971;-67
2023/12/04 06:24:25;;;;;;;16.50;7.80;;;;;;;;;;5072849;28;20427;-67
2023/12/04 06:26:52;;;;;;;22.80;9.13;;;;;;;;;;5055734;28;20475;-67
2023/12/04 06:29:19;;;;;;;22.67;9.47;;;;;;;;;;5074017;28;20423;-67
2023/12/04 06:31:46;;;;;;;21.20;8.90;;;;;;;;;;5073665;28;20768;-67
2023/12/04 06:38:06;;;;;;;19.93;7.87;;;;;;;;;;5074065;28;20406;-67
2023/12/04 06:40:33;;;;;;;18.60;8.17;;;;;;;;;;5055552;28;20459;-67
2023/12/04 06:47:26;;;;;;;17.00;7.43;;;;;;;;;;5073685;28;20363;-67
2023/12/04 06:49:52;;;;;;;20.50;7.63;;;;;;;;;;5074401;28;20722;-67
2023/12/04 06:52:19;;;;;;;24.87;9.83;;;;;;;;;;5072304;28;20524;-67
2023/12/04 06:54:46;;;;;;;29.30;12.10;;;;;;;;;;5055997;28;20489;-68
2023/12/04 06:57:14;;;;;;;30.50;10.67;;;;;;;;;;5073520;28;20427;-68
2023/12/04 07:00:07;;;;;;;26.03;10.50;;;;;;;;;;5038045;28;20460;-68
2023/12/04 07:10:58;;;;;;;22.50;9.30;;;;;;;;;;5073428;28;20767;-68
2023/12/04 07:13:42;;;;;;;18.37;7.80;;;;;;;;;;5058429;28;20733;-67
2023/12/04 07:16:09;;;;;;;17.40;6.77;;;;;;;;;;5073533;28;20488;-69
2023/12/04 07:21:54;;;;;;;20.13;9.97;;;;;;;;;;5073418;28;20455;-68
2023/12/04 07:24:23;;;;;;;23.10;10.50;;;;;;;;;;5055787;28;20486;-68
2023/12/04 07:26:50;;;;;;;21.20;10.03;;;;;;;;;;5056963;28;20455;-68
2023/12/04 07:29:17;;;;;;;20.27;8.43;;;;;;;;;;5039513;28;20915;-68
2023/12/04 07:31:44;;;;;;;18.83;7.73;;;;;;;;;;5055775;28;20434;-68
2023/12/04 07:37:26;;;;;;;22.77;10.37;;;;;;;;;;5071964;28;20446;-67
2023/12/04 07:40:29;;;;;;;22.53;12.07;;;;;;;;;;5073465;28;20437;-68
2023/12/04 07:42:59;;;;;;;23.50;11.60;;;;;;;;;;5073419;28;20868;-67
2023/12/04 07:49:32;;;;;;;21.00;10.77;;;;;;;;;;5073553;28;20810;-69
2023/12/04 07:51:58;;;;;;;23.80;11.33;;;;;;;;;;5072491;28;20428;-69
2023/12/04 08:02:18;;;;;;;27.50;12.73;;;;;;;;;;5072876;28;20434;-67
2023/12/04 08:04:45;;;;;;;37.53;17.20;;;;;;;;;;5055434;28;20535;-67
2023/12/04 08:07:31;;;;;;;30.97;15.13;;;;;;;;;;5055843;28;20460;-67
2023/12/04 08:10:01;;;;;;;32.43;15.53;;;;;;;;;;5078813;28;20522;-68
2023/12/04 08:12:28;;;;;;;35.07;17.30;;;;;;;;;;5096166;28;20445;-68
2023/12/04 08:15:34;;;;;;;33.33;16.93;;;;;;;;;;5080243;28;20471;-68
2023/12/04 08:18:01;;;;;;;33.13;16.70;;;;;;;;;;5079984;28;20394;-68
2023/12/04 08:20:28;;;;;;;36.67;17.03;;;;;;;;;;5080027;28;20431;-68
2023/12/04 08:23:06;;;;;;;36.03;15.97;;;;;;;;;;5079765;28;20488;-68
2023/12/04 08:25:33;;;;;;;33.07;15.97;;;;;;;;;;5062469;28;21046;-68
2023/12/04 08:28:00;;;;;;;31.27;15.53;;;;;;;;;;5061070;28;20454;-68
2023/12/04 08:30:27;;;;;;;28.27;14.67;;;;;;;;;;5096450;28;20427;-68
2023/12/04 08:32:55;;;;;;;30.13;13.80;;;;;;;;;;5078415;28;20430;-68
2023/12/04 08:35:22;;;;;;;28.87;12.60;;;;;;;;;;5096238;28;20810;-67
2023/12/04 08:41:48;;;;;;;27.93;13.20;;;;;;;;;;5096568;28;20485;-68
2023/12/04 08:44:27;;;;;;;26.77;13.10;;;;;;;;;;5080033;28;20467;-68
2023/12/04 08:50:05;;;;;;;25.67;12.37;;;;;;;;;;5096432;28;20404;-67
2023/12/04 08:57:13;;;;;;;22.50;11.47;;;;;;;;;;5096345;28;20347;-68
2023/12/04 08:59:41;;;;;;;27.87;13.63;;;;;;;;;;5096360;28;20458;-68
2023/12/04 09:02:07;;;;;;;30.33;13.17;;;;;;;;;;5078218;28;20451;-68
2023/12/04 09:04:38;;;;;;;35.20;16.10;;;;;;;;;;5077311;28;20419;-68
2023/12/04 09:07:05;;;;;;;30.23;14.63;;;;;;;;;;5076989;28;20489;-67
2023/12/04 09:09:35;;;;;;;31.03;14.20;;;;;;;;;;5095415;28;20423;-67
2023/12/04 09:12:02;;;;;;;33.07;15.83;;;;;;;;;;5060446;28;20425;-68
2023/12/04 09:14:29;;;;;;;28.07;14.07;;;;;;;;;;5061555;28;20510;-69
2023/12/04 09:16:55;;;;;;;35.10;14.30;;;;;;;;;;5094744;28;20506;-67
2023/12/04 09:19:22;;;;;;;32.10;16.00;;;;;;;;;;5078393;28;20477;-69
2023/12/04 09:21:49;;;;;;;31.60;15.87;;;;;;;;;;5061436;28;20455;-69
2023/12/04 09:28:09;;;;;;;30.93;15.27;;;;;;;;;;5095185;28;20458;-69
2023/12/04 09:30:36;;;;;;;36.23;17.07;;;;;;;;;;5060138;28;20950;-69
2023/12/04 09:33:03;;;;;;;30.57;15.00;;;;;;;;;;5061301;28;20423;-69
2023/12/04 09:35:30;;;;;;;31.03;15.07;;;;;;;;;;5095883;28;20420;-68
2023/12/04 09:37:58;;;;;;;27.07;12.20;;;;;;;;;;5095743;28;20427;-69
2023/12/04 09:40:24;;;;;;;27.80;13.87;;;;;;;;;;5095071;28;20750;-69
2023/12/04 09:50:06;;;;;;;17.33;8.20;;;;;;;;;;5095755;28;20384;-74
2023/12/04 09:52:34;;;;;;;20.70;12.30;;;;;;;;;;5060441;28;20451;-69
2023/12/04 09:55:01;;;;;;;19.20;11.03;;;;;;;;;;5060661;28;20454;-69
2023/12/04 09:57:27;;;;;;;23.60;11.90;;;;;;;;;;5077639;28;20443;-69
2023/12/04 10:00:12;;;;;;;17.50;9.67;;;;;;;;;;5064576;28;20414;-68
2023/12/04 10:02:39;;;;;;;20.30;10.73;;;;;;;;;;5059244;28;20465;-69
2023/12/04 10:09:13;;;;;;;22.43;11.00;;;;;;;;;;5090531;28;20486;-68
2023/12/04 10:11:46;;;;;;;21.20;11.37;;;;;;;;;;5060173;28;20447;-68
2023/12/04 10:18:07;;;;;;;24.27;11.77;;;;;;;;;;5093742;28;20445;-68
2023/12/04 10:21:08;;;;;;;22.83;11.63;;;;;;;;;;5059232;28;20498;-68
2023/12/04 10:24:09;;;;;;;18.37;11.07;;;;;;;;;;5060524;28;20526;-69
2023/12/04 10:26:38;;;;;;;17.63;9.53;;;;;;;;;;5076641;28;20489;-68
2023/12/04 10:29:07;;;;;;;19.33;9.73;;;;;;;;;;5059918;28;20431;-68
2023/12/04 10:31:37;;;;;;;17.27;8.43;;;;;;;;;;5076985;28;20500;-68
2023/12/04 10:34:04;;;;;;;18.50;9.50;;;;;;;;;;5076957;28;20451;-68
2023/12/04 10:36:32;;;;;;;14.37;7.93;;;;;;;;;;5075495;28;20822;-68
2023/12/04 10:39:00;;;;;;;16.23;9.27;;;;;;;;;;5058857;28;20411;-68
2023/12/04 10:41:27;;;;;;;18.57;10.00;;;;;;;;;;5076551;28;20494;-69
2023/12/04 10:43:54;;;;;;;19.50;9.97;;;;;;;;;;5094141;28;20422;-68
2023/12/04 10:46:29;;;;;;;16.93;9.37;;;;;;;;;;5061119;28;20514;-68
2023/12/04 10:49:14;;;;;;;16.83;8.50;;;;;;;;;;5079188;28;20388;-68
2023/12/04 10:51:41;;;;;;;20.90;9.00;;;;;;;;;;5094140;28;20778;-68
2023/12/04 10:57:22;;;;;;;17.07;8.47;;;;;;;;;;5092326;28;20439;-68
2023/12/04 10:59:49;;;;;;;16.40;8.27;;;;;;;;;;5076283;28;20427;-68
2023/12/04 11:06:18;;;;;;;14.57;8.10;;;;;;;;;;5094052;28;20423;-68
2023/12/04 11:08:45;;;;;;;15.17;7.53;;;;;;;;;;5076000;28;20554;-68
2023/12/04 11:11:13;;;;;;;15.03;8.30;;;;;;;;;;5076153;28;20443;-68
2023/12/04 11:13:43;;;;;;;16.80;8.70;;;;;;;;;;5058265;28;20454;-68
2023/12/04 11:16:10;;;;;;;14.30;7.03;;;;;;;;;;5059017;28;20455;-68
2023/12/04 11:18:37;;;;;;;18.70;9.60;;;;;;;;;;5075674;28;20439;-68
2023/12/04 11:21:07;;;;;;;17.70;9.47;;;;;;;;;;5059071;28;20455;-68
2023/12/04 11:23:34;;;;;;;17.90;10.27;;;;;;;;;;5075418;28;20459;-68
2023/12/04 11:26:01;;;;;;;17.47;8.83;;;;;;;;;;5076538;28;20455;-68
2023/12/04 11:28:28;;;;;;;15.93;9.00;;;;;;;;;;5076020;28;20910;-68
2023/12/04 11:30:54;;;;;;;16.13;9.40;;;;;;;;;;5075001;28;20481;-68
2023/12/04 11:33:21;;;;;;;17.73;8.80;;;;;;;;;;5057731;28;20748;-68
2023/12/04 11:39:52;;;;;;;23.57;10.73;;;;;;;;;;5093619;28;20891;-68
2023/12/04 11:46:25;;;;;;;16.07;8.57;;;;;;;;;;5097735;28;20402;-68
2023/12/04 11:49:13;;;;;;;12.93;6.53;;;;;;;;;;5063064;28;20457;-69
2023/12/04 11:52:01;;;;;;;20.00;9.17;;;;;;;;;;5096285;28;20726;-68
2023/12/04 11:58:28;;;;;;;16.33;8.77;;;;;;;;;;5096976;28;20448;-68
2023/12/04 12:00:56;;;;;;;18.50;8.93;;;;;;;;;;5062906;28;20473;-68
2023/12/04 12:03:23;;;;;;;15.07;8.40;;;;;;;;;;5079630;28;20451;-68
2023/12/04 12:05:51;;;;;;;17.63;9.50;;;;;;;;;;5080145;28;20452;-68
2023/12/04 12:08:20;;;;;;;16.80;8.97;;;;;;;;;;5078078;28;20451;-69
2023/12/04 12:18:21;;;;;;;16.23;8.73;;;;;;;;;;5096672;28;20371;-68
2023/12/04 12:20:48;;;;;;;17.50;9.27;;;;;;;;;;5097457;28;20518;-68
2023/12/04 12:23:16;;;;;;;16.50;9.27;;;;;;;;;;5097337;28;20451;-68
2023/12/04 12:25:45;;;;;;;16.77;9.10;;;;;;;;;;5078656;28;20434;-69
2023/12/04 12:32:12;;;;;;;14.93;7.37;;;;;;;;;;5096469;28;20978;-68
2023/12/04 12:34:39;;;;;;;17.20;8.83;;;;;;;;;;5061823;28;20435;-68
2023/12/04 12:37:06;;;;;;;14.70;8.20;;;;;;;;;;5096640;28;20426;-68
2023/12/04 12:39:33;;;;;;;16.37;8.50;;;;;;;;;;5078695;28;20426;-68
2023/12/04 12:41:59;;;;;;;16.77;8.23;;;;;;;;;;5078842;28;20454;-68
2023/12/04 12:44:44;;;;;;;16.33;7.97;;;;;;;;;;5095374;28;20479;-68
2023/12/04 12:47:10;;;;;;;18.10;8.90;;;;;;;;;;5078024;28;20408;-69
2023/12/04 12:49:55;;;;;;;16.80;8.70;;;;;;;;;;5097128;28;20715;-69
2023/12/04 12:52:22;;;;;;;21.27;10.33;;;;;;;;;;5079574;28;20435;-69
2023/12/04 12:54:49;;;;;;;18.53;10.03;;;;;;;;;;5062000;28;20774;-68
2023/12/04 12:57:15;;;;;;;18.37;9.57;;;;;;;;;;5078461;28;20461;-68
2023/12/04 12:59:42;;;;;;;17.10;9.73;;;;;;;;;;5078180;28;20477;-68
2023/12/04 13:05:42;;;;;;;19.17;9.83;;;;;;;;;;5095949;28;20398;-68
2023/12/04 13:08:14;;;;;;;18.20;8.83;;;;;;;;;;5066649;28;20511;-68
2023/12/04 13:14:45;;;;;;;16.80;8.90;;;;;;;;;;5055929;28;20720;-68
2023/12/04 13:17:12;;;;;;;18.00;8.37;;;;;;;;;;5054467;28;20439;-68
2023/12/04 13:19:56;;;;;;;18.83;8.90;;;;;;;;;;5054669;28;20418;-69
2023/12/04 13:22:24;;;;;;;16.87;8.03;;;;;;;;;;5053573;28;20460;-69
2023/12/04 13:24:50;;;;;;;17.07;9.53;;;;;;;;;;5037343;28;20477;-68
2023/12/04 13:27:18;;;;;;;21.37;10.33;;;;;;;;;;5055066;28;20429;-68
2023/12/04 13:29:49;;;;;;;19.33;10.07;;;;;;;;;;5055656;28;20884;-68
2023/12/04 13:32:16;;;;;;;17.40;9.93;;;;;;;;;;5055455;28;20397;-69
2023/12/04 13:34:43;;;;;;;16.97;9.07;;;;;;;;;;5055238;28;20417;-68
2023/12/04 13:40:16;;;;;;;20.10;9.97;;;;;;;;;;5053251;28;20436;-68
2023/12/04 13:50:17;;;;;;;17.57;8.43;;;;;;;;;;5055166;28;20416;-68
2023/12/04 13:52:44;;;;;;;18.17;8.93;;;;;;;;;;5053886;28;20498;-68
2023/12/04 13:55:20;;;;;;;15.63;8.07;;;;;;;;;;5053078;28;20413;-68
2023/12/04 14:00:26;;;;;;;22.17;10.67;;;;;;;;;;5070267;28;20919;-68
2023/12/04 14:06:45;;;;;;;19.57;9.37;;;;;;;;;;5054075;28;20914;-68
2023/12/04 14:09:16;;;;;;;21.83;10.60;;;;;;;;;;5037490;28;20472;-68
2023/12/04 14:19:55;;;;;;;28.30;13.53;;;;;;;;;;5053949;28;20949;-67
2023/12/04 14:22:22;;;;;;;30.17;14.30;;;;;;;;;;5054628;28;20461;-68
2023/12/04 14:28:48;;;;;;;28.10;12.60;;;;;;;;;;5054290;28;20364;-69
2023/12/04 14:34:26;;;;;;;28.40;13.73;;;;;;;;;;5052765;28;20452;-69
2023/12/04 14:40:53;;;;;;;39.83;18.37;;;;;;;;;;5053720;28;20789;-68
2023/12/04 14:43:20;;;;;;;31.60;15.43;;;;;;;;;;5036247;28;20465;-68
2023/12/04 14:45:47;;;;;;;30.70;13.87;;;;;;;;;;5054089;28;20417;-68
2023/12/04 14:51:48;;;;;;;28.77;13.53;;;;;;;;;;5053339;28;20421;-68
2023/12/04 15:14:56;;;;;;;44.03;20.07;;;;;;;;;;5070387;28;20476;-68
2023/12/04 15:22:26;;;;;;;47.03;19.97;;;;;;;;;;5075480;28;20469;-70
2023/12/04 15:27:52;;;;;;;48.80;21.67;;;;;;;;;;5059511;28;20401;-68
2023/12/04 15:34:54;;;;;;;40.60;17.23;;;;;;;;;;5059832;28;20453;-68
2023/12/04 15:37:22;;;;;;;48.50;20.67;;;;;;;;;;5058916;28;20433;-68
2023/12/04 15:39:49;;;;;;;46.97;21.10;;;;;;;;;;5060194;28;20421;-68
2023/12/04 15:49:54;;;;;;;45.00;18.30;;;;;;;;;;5059266;28;20492;-68
2023/12/04 15:52:40;;;;;;;45.77;18.97;;;;;;;;;;5059639;28;20393;-68
2023/12/04 15:55:10;;;;;;;43.50;20.50;;;;;;;;;;5058611;28;20417;-68
2023/12/04 15:57:37;;;;;;;44.90;19.67;;;;;;;;;;5060582;28;20872;-68
2023/12/04 16:00:09;;;;;;;47.23;20.57;;;;;;;;;;5057606;28;20429;-68
2023/12/04 16:02:58;;;;;;;39.00;19.67;;;;;;;;;;5057449;28;20465;-68
2023/12/04 16:05:43;;;;;;;40.03;18.60;;;;;;;;;;5059539;28;20856;-68
2023/12/04 16:08:10;;;;;;;48.07;21.63;;;;;;;;;;5058369;28;20793;-68
2023/12/04 16:10:37;;;;;;;53.27;23.07;;;;;;;;;;5059344;28;20428;-68
2023/12/04 16:13:04;;;;;;;49.87;22.60;;;;;;;;;;5058146;28;20792;-68
2023/12/04 16:15:31;;;;;;;70.57;36.00;;;;;;;;;;5060068;28;20428;-68
2023/12/04 16:17:58;;;;;;;50.00;21.77;;;;;;;;;;5057106;28;20888;-73
2023/12/04 16:20:25;;;;;;;54.43;23.67;;;;;;;;;;5058033;28;20457;-69
2023/12/04 16:26:55;;;;;;;54.57;22.20;;;;;;;;;;5059576;28;20403;-69
2023/12/04 16:29:24;;;;;;;49.57;21.93;;;;;;;;;;5056528;28;20472;-69
2023/12/04 16:31:51;;;;;;;45.57;19.37;;;;;;;;;;5039166;28;20429;-69
2023/12/04 16:34:17;;;;;;;47.67;19.70;;;;;;;;;;5055459;28;20425;-69
2023/12/04 16:36:45;;;;;;;48.17;19.93;;;;;;;;;;5053900;28;20796;-67
2023/12/04 16:39:12;;;;;;;47.50;20.53;;;;;;;;;;5055853;28;20516;-67
2023/12/04 16:41:38;;;;;;;41.07;18.63;;;;;;;;;;5055427;28;20919;-69
2023/12/04 16:44:06;;;;;;;42.17;17.97;;;;;;;;;;5032882;28;20465;-67
2023/12/04 16:46:55;;;;;;;38.70;17.07;;;;;;;;;;5051686;28;20406;-69
2023/12/04 16:49:22;;;;;;;42.57;19.13;;;;;;;;;;5034930;28;20450;-67
2023/12/04 16:51:49;;;;;;;43.70;19.37;;;;;;;;;;5034600;28;20461;-69
2023/12/04 16:54:16;;;;;;;46.13;19.30;;;;;;;;;;5035834;28;20426;-69
2023/12/04 16:56:43;;;;;;;48.27;19.87;;;;;;;;;;5034388;28;20507;-69
2023/12/04 16:59:10;;;;;;;40.57;19.30;;;;;;;;;;5034393;28;20434;-67
2023/12/04 17:01:37;;;;;;;43.60;18.80;;;;;;;;;;5034275;28;20942;-67
2023/12/04 17:04:04;;;;;;;44.63;18.97;;;;;;;;;;5034764;28;20481;-68
2023/12/04 17:06:31;;;;;;;48.20;19.60;;;;;;;;;;5018187;28;20430;-68
2023/12/04 17:08:59;;;;;;;44.93;18.40;;;;;;;;;;5065216;28;20843;-68
2023/12/04 17:11:25;;;;;;;51.27;22.77;;;;;;;;;;5070327;28;20447;-69
2023/12/04 17:13:53;;;;;;;45.80;18.97;;;;;;;;;;5070503;28;20958;-69
2023/12/04 17:16:20;;;;;;;46.93;18.57;;;;;;;;;;5054563;28;20943;-67
2023/12/04 17:18:47;;;;;;;54.87;22.27;;;;;;;;;;5070646;28;20464;-67
2023/12/04 17:21:14;;;;;;;49.03;19.87;;;;;;;;;;5070959;28;20432;-69
2023/12/04 17:23:41;;;;;;;54.67;23.47;;;;;;;;;;5070856;28;20464;-69
2023/12/04 17:26:09;;;;;;;52.80;23.00;;;;;;;;;;5070489;28;20512;-69
2023/12/04 17:28:36;;;;;;;37.97;16.03;;;;;;;;;;5071079;28;20428;-68
2023/12/04 17:31:04;;;;;;;42.90;16.47;;;;;;;;;;5055965;28;20429;-68
2023/12/04 17:33:32;;;;;;;45.57;16.87;;;;;;;;;;5070827;28;20435;-67
2023/12/04 17:36:04;;;;;;;43.03;17.83;;;;;;;;;;5055228;28;20475;-69
2023/12/04 17:38:31;;;;;;;48.47;20.60;;;;;;;;;;5054309;28;20432;-68
2023/12/04 17:40:58;;;;;;;53.23;18.67;;;;;;;;;;5069720;28;20784;-67
2023/12/04 17:43:26;;;;;;;56.67;21.00;;;;;;;;;;5054484;28;20469;-70
2023/12/04 17:45:52;;;;;;;53.13;19.37;;;;;;;;;;5070360;28;20429;-69
2023/12/04 17:48:19;;;;;;;69.70;17.63;;;;;;;;;;5055076;28;20427;-69
2023/12/04 17:50:47;;;;;;;70.30;16.00;;;;;;;;;;5054267;28;20440;-69
2023/12/04 17:53:14;;;;;;;92.90;19.77;;;;;;;;;;5053885;28;20760;-69
2023/12/04 17:55:41;;;;;;;61.80;16.87;;;;;;;;;;5054912;28;20460;-68
2023/12/04 17:58:08;;;;;;;56.57;19.70;;;;;;;;;;5052287;28;20425;-68
2023/12/04 18:00:36;;;;;;;43.37;14.00;;;;;;;;;;5069867;28;20491;-69
2023/12/04 18:03:03;;;;;;;97.00;22.60;;;;;;;;;;5053447;28;20461;-69
2023/12/04 18:05:35;;;;;;;76.23;22.47;;;;;;;;;;5069374;28;20469;-69
2023/12/04 18:08:05;;;;;;;117.20;29.07;;;;;;;;;;5069514;28;20463;-69
2023/12/04 18:10:32;;;;;;;96.37;24.20;;;;;;;;;;5053511;28;20430;-69
2023/12/04 18:12:59;;;;;;;85.83;24.37;;;;;;;;;;5070102;28;20495;-69
2023/12/04 18:15:26;;;;;;;98.70;21.23;;;;;;;;;;5070681;28;20425;-69
2023/12/04 18:17:52;;;;;;;94.33;23.67;;;;;;;;;;5054749;28;20417;-69
2023/12/04 18:20:19;;;;;;;58.00;21.40;;;;;;;;;;5053409;28;20429;-68
2023/12/04 18:22:48;;;;;;;71.70;22.10;;;;;;;;;;5054736;28;20431;-69
2023/12/04 18:25:18;;;;;;;62.90;21.67;;;;;;;;;;5069704;28;20441;-69
2023/12/04 18:27:45;;;;;;;121.83;26.80;;;;;;;;;;5053644;28;20800;-67
2023/12/04 18:30:16;;;;;;;60.40;20.93;;;;;;;;;;5069637;28;20428;-69
2023/12/04 18:32:43;;;;;;;106.30;27.77;;;;;;;;;;5069414;28;20408;-68
2023/12/04 18:35:10;;;;;;;70.40;22.37;;;;;;;;;;5052999;28;20460;-72
2023/12/04 18:37:45;;;;;;;63.43;23.17;;;;;;;;;;5047929;28;20433;-72
2023/12/04 18:40:13;;;;;;;47.40;18.33;;;;;;;;;;5053461;28;20539;-70
2023/12/04 18:42:39;;;;;;;46.67;17.80;;;;;;;;;;5043749;28;20517;-72
2023/12/04 18:45:08;;;;;;;109.17;20.23;;;;;;;;;;5060053;28;20425;-72
2023/12/04 18:47:43;;;;;;;80.37;20.17;;;;;;;;;;5045047;28;20444;-70
2023/12/04 18:54:10;;;;;;;114.70;24.93;;;;;;;;;;5063709;28;20412;-72
2023/12/04 18:56:37;;;;;;;100.80;26.50;;;;;;;;;;5046620;28;20835;-72
2023/12/04 18:59:04;;;;;;;103.70;21.63;;;;;;;;;;5063071;28;20430;-72
2023/12/04 19:01:34;;;;;;;80.57;23.00;;;;;;;;;;5063052;28;20987;-72
2023/12/04 19:04:01;;;;;;;74.77;18.73;;;;;;;;;;5046484;28;20479;-72
2023/12/04 19:06:28;;;;;;;106.67;21.90;;;;;;;;;;5046569;28;20488;-72
2023/12/04 19:08:55;;;;;;;79.20;21.87;;;;;;;;;;5062943;28;20467;-71
2023/12/04 19:11:23;;;;;;;60.67;20.83;;;;;;;;;;5063189;28;20421;-72
2023/12/04 19:13:52;;;;;;;89.80;25.10;;;;;;;;;;5046613;28;20456;-73
2023/12/04 19:16:19;;;;;;;74.57;22.67;;;;;;;;;;5046264;28;20455;-72
2023/12/04 19:18:46;;;;;;;63.63;21.20;;;;;;;;;;5046213;28;20429;-69
2023/12/04 19:21:13;;;;;;;62.03;22.43;;;;;;;;;;5046373;28;20440;-67
2023/12/04 19:23:41;;;;;;;66.20;22.43;;;;;;;;;;5063133;28;20533;-67
2023/12/04 19:26:08;;;;;;;69.30;22.27;;;;;;;;;;5063058;28;20892;-69
2023/12/04 19:28:36;;;;;;;76.93;24.93;;;;;;;;;;5063162;28;20809;-72
2023/12/04 19:31:03;;;;;;;62.10;22.27;;;;;;;;;;5046485;28;20474;-73
2023/12/04 19:33:31;;;;;;;51.47;20.40;;;;;;;;;;5063033;28;20899;-73
2023/12/04 19:35:58;;;;;;;49.83;19.23;;;;;;;;;;5046540;28;20420;-72
2023/12/04 19:38:25;;;;;;;55.47;19.47;;;;;;;;;;5034696;28;20511;-73
2023/12/04 19:40:52;;;;;;;57.83;22.17;;;;;;;;;;5045274;28;20431;-72
2023/12/04 19:43:20;;;;;;;74.10;22.20;;;;;;;;;;5045992;28;21217;-73
2023/12/04 19:45:47;;;;;;;64.00;21.27;;;;;;;;;;5046350;28;20443;-72